Time;durP1;ratioP1;P1;durP2;ratioP2;P2;SDS_P1;SDS_P2;PMS_P1;PMS_P2;Temp;Humidity;BMP_temperature;BMP_pressure;BME280_temperature;BME280_humidity;BME280_pressure;Samples;Min_cycle;Max_cycle;Signal;HPM_P1;HPM_P2
2022/09/24 00:00:44;;;;;;;47.90;33.70;;;;;;;7.96;94.94;95016.25;5134278;27;20219;-80
2022/09/24 00:03:12;;;;;;;50.13;34.93;;;;;;;7.98;94.45;95032.41;5136679;27;20199;-79
2022/09/24 00:05:39;;;;;;;50.90;39.27;;;;;;;8.00;95.00;95021.88;5134427;27;20211;-79
2022/09/24 00:08:06;;;;;;;55.97;39.17;;;;;;;7.95;94.59;95014.69;5133712;27;20195;-79
2022/09/24 00:10:38;;;;;;;52.80;37.87;;;;;;;7.95;94.34;95014.69;5137675;27;20582;-79
2022/09/24 00:13:07;;;;;;;51.73;36.43;;;;;;;8.04;94.43;95014.50;5134760;27;20230;-79
2022/09/24 00:15:37;;;;;;;51.13;39.73;;;;;;;8.11;93.83;95016.13;5135251;27;20578;-79
2022/09/24 00:18:06;;;;;;;61.30;41.97;;;;;;;7.99;93.90;95005.53;5136768;27;20282;-80
2022/09/24 00:20:34;;;;;;;63.20;43.50;;;;;;;8.08;93.58;95015.75;5135812;27;20229;-80
2022/09/24 00:23:01;;;;;;;55.80;41.57;;;;;;;7.94;93.73;95002.72;5133837;27;20199;-80
2022/09/24 00:28:14;;;;;;;64.30;44.53;;;;;;;7.88;94.52;95000.09;5132143;27;20199;-80
2022/09/24 00:30:43;;;;;;;62.17;45.67;;;;;;;7.90;94.97;95017.06;5135488;27;20936;-80
2022/09/24 00:33:10;;;;;;;62.73;46.53;;;;;;;7.83;94.72;95018.81;5135125;27;20570;-79
2022/09/24 00:35:38;;;;;;;55.07;42.93;;;;;;;7.41;95.65;95012.03;5131884;27;20641;-79
2022/09/24 00:38:05;;;;;;;59.40;44.07;;;;;;;7.15;96.29;95018.78;5133270;27;20207;-79
2022/09/24 00:40:35;;;;;;;63.80;47.47;;;;;;;6.81;100.00;95009.97;5132973;27;20222;-79
2022/09/24 00:43:02;;;;;;;61.90;46.30;;;;;;;6.87;100.00;95000.66;5137102;27;20207;-80
2022/09/24 00:45:31;;;;;;;60.63;44.73;;;;;;;6.99;100.00;95014.69;5132841;27;20221;-80
2022/09/24 00:47:58;;;;;;;58.57;44.43;;;;;;;7.05;100.00;95008.75;5134164;27;20199;-80
2022/09/24 00:50:30;;;;;;;61.67;42.63;;;;;;;7.12;100.00;95003.66;5129266;27;20196;-81
2022/09/24 00:53:00;;;;;;;56.10;41.47;;;;;;;7.19;100.00;95004.47;5136016;27;20318;-80
2022/09/24 00:55:28;;;;;;;55.20;40.30;;;;;;;7.28;98.83;95011.91;5136871;27;20198;-80
2022/09/24 00:57:57;;;;;;;56.47;40.80;;;;;;;7.29;98.69;95000.59;5136794;27;20238;-80
2022/09/24 01:00:25;;;;;;;48.03;35.60;;;;;;;7.31;98.10;94988.28;5135038;27;20211;-81
2022/09/24 01:02:58;;;;;;;51.83;36.40;;;;;;;7.38;97.96;94996.09;5136338;27;20196;-79
2022/09/24 01:05:25;;;;;;;47.30;34.97;;;;;;;7.25;97.91;94985.63;5135026;27;20202;-81
2022/09/24 01:07:52;;;;;;;44.83;32.17;;;;;;;7.38;97.56;94998.66;5135363;27;20581;-80
2022/09/24 01:10:48;;;;;;;46.00;31.33;;;;;;;7.26;97.21;94985.47;5135041;27;20218;-80
2022/09/24 01:13:29;;;;;;;40.40;26.20;;;;;;;7.37;97.31;94997.06;5136338;27;20194;-81
2022/09/24 01:16:01;;;;;;;40.97;26.10;;;;;;;7.33;97.51;94998.44;5129225;27;20199;-80
2022/09/24 01:18:38;;;;;;;37.47;23.47;;;;;;;7.32;96.98;94994.25;5129870;27;20566;-80
2022/09/24 01:21:28;;;;;;;32.53;19.33;;;;;;;7.32;97.04;94995.06;5132139;27;20222;-79
2022/09/24 01:24:23;;;;;;;25.80;17.23;;;;;;;7.26;96.97;94984.66;5131732;27;20199;-80
2022/09/24 01:27:01;;;;;;;22.00;14.57;;;;;;;7.29;96.88;94989.47;5136632;27;20207;-80
2022/09/24 01:29:57;;;;;;;18.60;11.70;;;;;;;7.29;97.22;94989.47;5128981;27;20201;-80
2022/09/24 01:32:32;;;;;;;21.03;12.33;;;;;;;7.27;97.22;94999.19;5133445;27;20202;-80
2022/09/24 01:35:03;;;;;;;20.27;12.27;;;;;;;7.27;96.73;94989.63;5131929;27;20315;-80
2022/09/24 01:37:33;;;;;;;22.03;13.80;;;;;;;7.20;97.73;94986.22;5132073;27;20199;-80
2022/09/24 01:40:02;;;;;;;22.57;14.03;;;;;;;7.21;97.66;94998.16;5134313;27;20211;-80
2022/09/24 01:42:30;;;;;;;25.60;16.03;;;;;;;7.07;98.20;94980.94;5129410;27;20251;-80
2022/09/24 01:45:01;;;;;;;23.27;15.47;;;;;;;7.22;97.99;95001.53;5130044;27;20287;-79
2022/09/24 01:47:32;;;;;;;25.23;14.23;;;;;;;7.12;97.67;94993.31;5128617;27;20209;-80
2022/09/24 01:49:59;;;;;;;19.17;12.03;;;;;;;6.81;97.46;95009.97;5134391;27;20213;-79
2022/09/24 01:52:31;;;;;;;21.27;13.93;;;;;;;6.40;98.52;94990.13;5133882;27;20229;-79
2022/09/24 01:55:02;;;;;;;19.83;13.10;;;;;;;6.17;100.00;94998.84;5130492;27;20225;-80
2022/09/24 01:57:33;;;;;;;22.20;13.73;;;;;;;6.20;100.00;94997.66;5133812;27;20198;-81
2022/09/24 02:00:06;;;;;;;20.60;13.13;;;;;;;6.34;100.00;95007.13;5134039;27;20195;-81
2022/09/24 02:02:39;;;;;;;19.47;12.37;;;;;;;6.48;100.00;95005.47;5132051;27;20207;-80
2022/09/24 02:05:12;;;;;;;17.70;11.17;;;;;;;6.57;100.00;95005.19;5134444;27;20670;-80
2022/09/24 02:07:44;;;;;;;16.33;10.93;;;;;;;6.68;100.00;95009.06;5135192;27;20300;-81
2022/09/24 02:10:15;;;;;;;19.83;11.80;;;;;;;6.78;100.00;95019.88;5134973;27;20214;-81
2022/09/24 02:12:45;;;;;;;22.23;11.63;;;;;;;6.81;100.00;95015.13;5129540;27;20191;-81
2022/09/24 02:15:19;;;;;;;17.80;10.93;;;;;;;6.81;100.00;95019.50;5134185;27;20214;-80
2022/09/24 02:17:51;;;;;;;23.07;10.50;;;;;;;6.90;100.00;95027.94;5133874;27;20626;-80
2022/09/24 02:20:21;;;;;;;18.77;11.03;;;;;;;6.84;99.34;95014.75;5133038;27;20222;-81
2022/09/24 02:22:51;;;;;;;17.67;10.47;;;;;;;6.88;99.52;95028.09;5133529;27;20218;-80
2022/09/24 02:25:23;;;;;;;18.40;10.70;;;;;;;6.77;99.66;95019.06;5131899;27;20210;-81
2022/09/24 02:27:50;;;;;;;18.37;10.80;;;;;;;6.84;99.15;95025.09;5134430;27;20206;-80
2022/09/24 02:30:18;;;;;;;19.27;11.30;;;;;;;6.91;98.56;95030.31;5134737;27;20203;-81
2022/09/24 02:32:46;;;;;;;18.20;11.50;;;;;;;6.77;98.75;95026.81;5133010;27;20237;-80
2022/09/24 02:35:12;;;;;;;17.13;10.63;;;;;;;6.77;98.29;95034.56;5131466;27;20195;-80
2022/09/24 02:37:41;;;;;;;15.27;10.50;;;;;;;6.80;97.92;95036.78;5133054;27;20286;-80
2022/09/24 02:40:11;;;;;;;15.13;9.80;;;;;;;6.82;98.13;95042.56;5131577;27;20665;-79
2022/09/24 02:42:39;;;;;;;19.90;10.63;;;;;;;6.78;98.07;95043.91;5130436;27;20226;-80
2022/09/24 02:45:07;;;;;;;16.47;9.73;;;;;;;6.74;98.30;95042.69;5132534;27;20203;-81
2022/09/24 02:47:35;;;;;;;15.17;9.90;;;;;;;6.77;98.28;95050.06;5135133;27;20202;-76
2022/09/24 02:50:02;;;;;;;14.70;10.07;;;;;;;6.71;98.37;95047.41;5130574;27;20229;-80
2022/09/24 02:52:29;;;;;;;15.73;9.27;;;;;;;6.56;98.57;95042.31;5133520;27;20244;-80
2022/09/24 02:54:56;;;;;;;14.40;9.30;;;;;;;6.59;99.02;95054.03;5135396;27;20195;-80
2022/09/24 02:57:23;;;;;;;13.73;9.40;;;;;;;6.51;100.00;95056.75;5135167;27;20814;-81
2022/09/24 02:59:49;;;;;;;15.67;9.83;;;;;;;6.08;99.15;95059.25;5130369;27;20226;-78
2022/09/24 03:02:16;;;;;;;17.83;11.27;;;;;;;5.63;100.00;95060.22;5130196;27;20239;-78
2022/09/24 03:04:45;;;;;;;15.47;10.07;;;;;;;5.57;100.00;95057.56;5133655;27;20206;-79
2022/09/24 03:07:13;;;;;;;16.43;11.03;;;;;;;5.64;100.00;95048.13;5133517;27;20210;-79
2022/09/24 03:09:40;;;;;;;18.67;10.93;;;;;;;5.73;100.00;95057.38;5134555;27;20253;-77
2022/09/24 03:12:07;;;;;;;18.03;11.10;;;;;;;5.83;100.00;95057.88;5132252;27;20653;-79
2022/09/24 03:14:33;;;;;;;17.67;11.50;;;;;;;5.94;100.00;95051.53;5133136;27;20224;-78
2022/09/24 03:17:00;;;;;;;19.43;11.03;;;;;;;6.05;100.00;95054.44;5131600;27;20210;-78
2022/09/24 03:19:28;;;;;;;21.80;11.20;;;;;;;6.12;100.00;95054.50;5131680;27;20210;-79
2022/09/24 03:21:56;;;;;;;15.63;10.03;;;;;;;6.25;100.00;95049.53;5132191;27;20606;-79
2022/09/24 03:24:23;;;;;;;16.17;10.60;;;;;;;6.35;100.00;95059.56;5130530;27;20305;-79
2022/09/24 03:26:50;;;;;;;20.80;11.07;;;;;;;6.38;100.00;95059.97;5131701;27;20226;-79
2022/09/24 03:30:58;;;;;;;20.00;11.70;;;;;;;6.39;100.00;95059.00;5133428;27;20223;-79
2022/09/24 03:32:03;;;;;;;18.43;11.30;;;;;;;6.42;100.00;95061.22;5134825;27;20563;-80
2022/09/24 03:34:30;;;;;;;18.87;13.20;;;;;;;6.46;100.00;95065.06;5130668;27;20199;-79
2022/09/24 03:36:58;;;;;;;18.37;13.10;;;;;;;6.45;99.84;95066.03;5131190;27;20199;-80
2022/09/24 03:39:25;;;;;;;19.43;12.67;;;;;;;6.40;100.00;95070.94;5129744;27;20203;-79
2022/09/24 03:41:52;;;;;;;23.40;13.33;;;;;;;6.35;100.00;95072.47;5133736;27;20223;-78
2022/09/24 03:44:18;;;;;;;19.37;13.10;;;;;;;6.28;100.00;95062.88;5134586;27;20310;-79
2022/09/24 03:46:45;;;;;;;20.93;12.83;;;;;;;6.32;100.00;95070.25;5133235;27;20206;-80
2022/09/24 03:49:12;;;;;;;23.03;12.90;;;;;;;6.28;100.00;95068.03;5129476;27;20752;-79
2022/09/24 03:51:39;;;;;;;26.33;14.00;;;;;;;6.29;100.00;95074.00;5131956;27;20201;-80
2022/09/24 03:54:07;;;;;;;23.90;13.77;;;;;;;6.22;100.00;95070.53;5130394;27;20239;-81
2022/09/24 03:56:34;;;;;;;29.50;15.50;;;;;;;6.18;100.00;95071.84;5136734;27;20251;-80
2022/09/24 03:59:01;;;;;;;25.23;13.80;;;;;;;6.21;100.00;95067.13;5133789;27;20209;-80
2022/09/24 04:01:31;;;;;;;23.33;12.77;;;;;;;6.27;100.00;95075.94;5133182;27;20223;-78
2022/09/24 04:03:58;;;;;;;24.00;13.93;;;;;;;6.23;100.00;95074.72;5131415;27;20221;-78
2022/09/24 04:06:25;;;;;;;23.87;13.07;;;;;;;5.75;100.00;95076.03;5131238;27;20202;-80
2022/09/24 04:08:53;;;;;;;18.70;11.73;;;;;;;5.42;100.00;95080.75;5131708;27;20213;-78
2022/09/24 04:11:21;;;;;;;20.20;12.93;;;;;;;5.24;100.00;95082.03;5135221;27;20310;-78
2022/09/24 04:13:48;;;;;;;17.40;11.83;;;;;;;5.20;100.00;95070.44;5133976;27;20206;-79
2022/09/24 04:16:15;;;;;;;17.70;12.57;;;;;;;5.32;100.00;95077.59;5137433;27;21009;-77
2022/09/24 04:18:42;;;;;;;20.93;12.77;;;;;;;5.46;100.00;95078.59;5138199;27;20670;-79
2022/09/24 04:21:09;;;;;;;24.13;13.43;;;;;;;5.50;100.00;95080.66;5132901;27;20197;-78
2022/09/24 04:23:36;;;;;;;21.20;13.30;;;;;;;5.57;100.00;95085.91;5134432;27;20227;-80
2022/09/24 04:26:03;;;;;;;26.80;16.17;;;;;;;5.69;100.00;95082.69;5137451;27;20205;-80
2022/09/24 04:28:32;;;;;;;26.60;15.87;;;;;;;5.74;100.00;95092.50;5138283;27;20202;-80
2022/09/24 04:30:58;;;;;;;30.00;19.43;;;;;;;5.74;100.00;95100.25;5136824;27;20216;-80
2022/09/24 04:33:26;;;;;;;33.27;21.10;;;;;;;5.76;100.00;95102.63;5137094;27;20205;-81
2022/09/24 04:35:52;;;;;;;36.77;21.63;;;;;;;5.82;100.00;95099.34;5135227;27;20206;-80
2022/09/24 04:38:20;;;;;;;34.00;21.20;;;;;;;5.91;100.00;95106.84;5136678;27;20218;-80
2022/09/24 04:40:47;;;;;;;42.73;24.80;;;;;;;5.87;100.00;95094.47;5135480;27;20203;-79
2022/09/24 04:43:14;;;;;;;50.60;30.27;;;;;;;5.84;100.00;95102.53;5135031;27;20222;-80
2022/09/24 04:45:43;;;;;;;43.67;26.87;;;;;;;5.85;100.00;95099.81;5135399;27;20206;-79
2022/09/24 04:48:10;;;;;;;40.17;21.43;;;;;;;5.88;100.00;95096.88;5136154;27;20263;-78
2022/09/24 04:50:38;;;;;;;38.73;23.40;;;;;;;5.98;100.00;95102.56;5136493;27;20198;-79
2022/09/24 04:53:05;;;;;;;37.63;23.87;;;;;;;6.06;100.00;95101.69;5134432;27;20303;-78
2022/09/24 04:55:32;;;;;;;39.50;24.70;;;;;;;6.05;100.00;95105.25;5135192;27;20447;-78
2022/09/24 04:57:59;;;;;;;34.97;21.90;;;;;;;6.09;100.00;95101.34;5135979;27;20669;-78
2022/09/24 05:00:26;;;;;;;29.93;20.47;;;;;;;6.17;100.00;95094.28;5136815;27;20200;-77
2022/09/24 05:02:58;;;;;;;35.07;21.13;;;;;;;6.18;100.00;95105.41;5136895;27;20239;-78
2022/09/24 05:05:26;;;;;;;38.63;24.83;;;;;;;5.86;100.00;95098.81;5137389;27;20255;-78
2022/09/24 05:07:55;;;;;;;28.80;17.67;;;;;;;5.59;100.00;95102.00;5134587;27;20642;-77
2022/09/24 05:10:23;;;;;;;33.73;15.90;;;;;;;5.37;100.00;95103.63;5132922;27;20795;-78
2022/09/24 05:12:50;;;;;;;19.47;12.43;;;;;;;5.48;100.00;95110.16;5135165;27;20209;-77
2022/09/24 05:15:18;;;;;;;20.03;11.07;;;;;;;5.61;100.00;95105.19;5134063;27;20225;-77
2022/09/24 05:17:45;;;;;;;19.37;11.43;;;;;;;5.78;100.00;95105.81;5134476;27;20250;-78
2022/09/24 05:20:15;;;;;;;17.33;11.43;;;;;;;5.94;100.00;95103.13;5135249;27;20203;-80
2022/09/24 05:22:43;;;;;;;16.03;10.60;;;;;;;6.09;100.00;95106.50;5134971;27;20278;-78
2022/09/24 05:25:10;;;;;;;16.60;11.00;;;;;;;6.20;100.00;95106.81;5133187;27;20572;-79
2022/09/24 05:27:36;;;;;;;18.50;11.60;;;;;;;6.28;100.00;95100.78;5134083;27;20191;-79
2022/09/24 05:30:05;;;;;;;18.73;12.03;;;;;;;6.39;100.00;95105.47;5132486;27;20209;-80
2022/09/24 05:32:34;;;;;;;18.03;11.73;;;;;;;6.42;100.00;95105.09;5131552;27;20192;-79
2022/09/24 05:35:01;;;;;;;20.47;12.17;;;;;;;6.51;100.00;95114.34;5132178;27;20194;-78
2022/09/24 05:37:31;;;;;;;19.70;12.10;;;;;;;6.63;100.00;95123.22;5131341;27;20229;-78
2022/09/24 05:40:46;;;;;;;20.73;13.27;;;;;;;6.74;100.00;95111.63;5129111;27;20309;-78
2022/09/24 05:42:47;;;;;;;22.70;12.63;;;;;;;6.70;100.00;95111.19;5128535;27;20708;-78
2022/09/24 05:45:16;;;;;;;21.13;12.00;;;;;;;6.81;100.00;95126.19;5128714;27;20202;-78
2022/09/24 05:47:44;;;;;;;21.77;12.60;;;;;;;6.79;100.00;95127.34;5131081;27;20195;-79
2022/09/24 05:50:11;;;;;;;18.93;12.10;;;;;;;6.95;100.00;95129.72;5131543;27;20199;-77
2022/09/24 05:52:41;;;;;;;16.50;11.27;;;;;;;6.98;100.00;95123.38;5133404;27;20757;-77
2022/09/24 05:55:10;;;;;;;17.33;11.20;;;;;;;6.97;100.00;95107.09;5130076;27;20198;-79
2022/09/24 05:57:42;;;;;;;17.33;10.83;;;;;;;7.13;100.00;95126.72;5131170;27;20191;-79
2022/09/24 06:00:14;;;;;;;18.27;10.30;;;;;;;7.27;100.00;95128.44;5129558;27;20205;-76
2022/09/24 06:02:40;;;;;;;15.57;10.70;;;;;;;7.28;100.00;95136.00;5132691;27;20222;-78
2022/09/24 06:05:09;;;;;;;15.93;10.90;;;;;;;6.92;100.00;95131.88;5129932;27;20195;-81
2022/09/24 06:07:36;;;;;;;19.47;10.63;;;;;;;6.55;100.00;95130.28;5133640;27;20207;-76
2022/09/24 06:10:06;;;;;;;16.83;11.10;;;;;;;6.36;100.00;95108.41;5129712;27;20198;-79
2022/09/24 06:12:33;;;;;;;23.50;12.53;;;;;;;6.58;100.00;95132.50;5131415;27;20223;-79
2022/09/24 06:15:01;;;;;;;21.37;11.97;;;;;;;6.78;100.00;95131.72;5130914;27;20197;-79
2022/09/24 06:17:28;;;;;;;17.53;11.40;;;;;;;6.98;100.00;95137.13;5131007;27;20679;-78
2022/09/24 06:19:56;;;;;;;18.50;11.73;;;;;;;7.15;100.00;95138.47;5129389;27;20196;-76
2022/09/24 06:22:25;;;;;;;22.73;12.73;;;;;;;7.29;100.00;95142.78;5132133;27;21010;-79
2022/09/24 06:24:52;;;;;;;17.40;11.43;;;;;;;7.35;100.00;95141.22;5131726;27;20565;-77
2022/09/24 06:27:20;;;;;;;18.70;11.00;;;;;;;7.42;100.00;95142.88;5132332;27;20211;-79
2022/09/24 06:29:48;;;;;;;16.83;11.67;;;;;;;7.52;100.00;95144.34;5131382;27;20207;-77
2022/09/24 06:32:16;;;;;;;15.63;10.27;;;;;;;7.67;100.00;95142.47;5130260;27;20650;-78
2022/09/24 06:34:43;;;;;;;19.53;10.97;;;;;;;7.71;100.00;95149.66;5130185;27;20263;-78
2022/09/24 06:37:10;;;;;;;17.63;10.80;;;;;;;7.79;99.68;95151.34;5136315;27;20202;-80
2022/09/24 06:39:37;;;;;;;16.47;10.60;;;;;;;7.89;98.70;95150.00;5133827;27;20286;-77
2022/09/24 06:42:05;;;;;;;15.63;10.30;;;;;;;7.98;98.19;95145.47;5132693;27;20196;-75
2022/09/24 06:44:34;;;;;;;15.83;10.33;;;;;;;8.09;97.79;95138.97;5133901;27;20278;-77
2022/09/24 06:47:01;;;;;;;16.70;10.10;;;;;;;8.11;97.70;95147.38;5133296;27;20222;-78
2022/09/24 06:49:28;;;;;;;15.40;10.17;;;;;;;8.14;97.84;95147.00;5128231;27;20666;-77
2022/09/24 06:51:56;;;;;;;17.00;10.33;;;;;;;8.16;98.06;95147.59;5131772;27;20207;-76
2022/09/24 06:54:23;;;;;;;15.17;10.43;;;;;;;8.27;97.65;95139.28;5131327;27;20206;-77
2022/09/24 06:56:51;;;;;;;16.43;10.03;;;;;;;8.30;97.49;95149.28;5133096;27;20225;-77
2022/09/24 06:59:18;;;;;;;15.53;10.80;;;;;;;8.32;97.24;95131.75;5134638;27;20211;-76
2022/09/24 07:01:46;;;;;;;16.53;10.90;;;;;;;8.44;96.07;95148.34;5129816;27;20195;-76
2022/09/24 07:04:13;;;;;;;15.73;11.37;;;;;;;8.52;95.60;95156.75;5129986;27;20223;-77
2022/09/24 07:09:24;;;;;;;17.60;11.60;;;;;;;8.53;94.37;95154.97;5134354;27;20288;-76
2022/09/24 07:11:51;;;;;;;19.10;11.67;;;;;;;8.54;94.59;95157.38;5131737;27;20203;-76
2022/09/24 07:14:18;;;;;;;17.43;11.53;;;;;;;8.62;94.81;95155.63;5132512;27;20200;-76
2022/09/24 07:16:47;;;;;;;16.87;12.10;;;;;;;8.71;94.43;95151.88;5132722;27;20218;-76
2022/09/24 07:19:14;;;;;;;17.83;11.80;;;;;;;8.82;94.07;95153.91;5133325;27;20206;-76
2022/09/24 07:21:41;;;;;;;20.40;12.07;;;;;;;8.94;93.66;95152.34;5134552;27;20218;-76
2022/09/24 07:24:08;;;;;;;20.57;12.07;;;;;;;9.01;92.52;95135.81;5133487;27;20274;-76
2022/09/24 07:26:34;;;;;;;20.90;12.20;;;;;;;9.08;92.50;95147.00;5133370;27;20210;-76
2022/09/24 07:29:01;;;;;;;18.73;12.47;;;;;;;9.12;91.58;95148.19;5133491;27;20200;-77
2022/09/24 07:31:29;;;;;;;21.40;12.80;;;;;;;9.17;92.12;95145.03;5130203;27;20203;-80
2022/09/24 07:33:58;;;;;;;21.00;12.43;;;;;;;9.22;91.44;95144.41;5130579;27;20199;-77
2022/09/24 07:36:25;;;;;;;20.37;12.97;;;;;;;9.28;91.03;95143.63;5132984;27;20290;-78
2022/09/24 07:38:51;;;;;;;18.50;12.07;;;;;;;9.35;91.77;95147.81;5133149;27;20195;-77
2022/09/24 07:41:19;;;;;;;30.40;12.87;;;;;;;9.47;90.53;95146.25;5133936;27;20203;-76
2022/09/24 07:43:46;;;;;;;19.13;12.00;;;;;;;9.47;90.52;95140.25;5130957;27;20223;-78
2022/09/24 07:46:12;;;;;;;17.93;12.50;;;;;;;9.48;89.77;95147.03;5134259;27;20203;-75
2022/09/24 07:48:39;;;;;;;20.10;13.27;;;;;;;9.50;89.76;95142.44;5136188;27;20787;-76
2022/09/24 07:51:11;;;;;;;21.67;12.47;;;;;;;9.57;89.38;95136.28;5137153;27;20195;-76
2022/09/24 07:53:38;;;;;;;24.70;11.97;;;;;;;9.70;89.26;95135.47;5137897;27;20227;-75
2022/09/24 07:56:05;;;;;;;18.53;12.73;;;;;;;9.76;88.74;95134.66;5137091;27;20206;-77
2022/09/24 07:58:32;;;;;;;17.87;12.47;;;;;;;9.86;87.72;95142.06;5136919;27;20195;-76
2022/09/24 08:00:59;;;;;;;22.93;12.40;;;;;;;9.92;86.96;95141.25;5138032;27;20199;-84
2022/09/24 08:03:26;;;;;;;19.67;12.67;;;;;;;10.00;88.27;95143.63;5135665;27;20277;-84
2022/09/24 08:05:56;;;;;;;19.30;12.80;;;;;;;10.14;86.56;95142.63;5136574;27;20202;-84
2022/09/24 08:08:24;;;;;;;18.17;12.73;;;;;;;10.27;86.65;95140.81;5136710;27;20303;-79
2022/09/24 08:10:51;;;;;;;21.77;13.47;;;;;;;10.37;86.24;95139.59;5136207;27;20203;-80
2022/09/24 08:13:18;;;;;;;20.63;12.97;;;;;;;10.42;86.31;95132.78;5133637;27;20207;-83
2022/09/24 08:15:45;;;;;;;19.90;12.30;;;;;;;10.56;85.50;95139.50;5133945;27;20204;-81
2022/09/24 08:18:12;;;;;;;19.73;12.47;;;;;;;10.60;84.77;95122.53;5136936;27;20200;-79
2022/09/24 08:20:39;;;;;;;17.20;11.97;;;;;;;10.78;83.60;95129.66;5135768;27;20218;-78
2022/09/24 08:23:08;;;;;;;21.27;12.30;;;;;;;10.93;82.85;95137.19;5136122;27;20693;-80
2022/09/24 08:25:36;;;;;;;26.33;12.57;;;;;;;10.97;81.51;95130.53;5137230;27;20223;-78
2022/09/24 08:28:04;;;;;;;17.43;12.13;;;;;;;11.06;82.26;95134.50;5134670;27;20207;-79
2022/09/24 08:30:32;;;;;;;18.90;11.87;;;;;;;11.16;83.74;95121.84;5136093;27;20210;-78
2022/09/24 08:32:59;;;;;;;19.60;12.60;;;;;;;11.03;82.35;95121.91;5136113;27;20593;-79
2022/09/24 08:35:26;;;;;;;20.63;12.63;;;;;;;10.79;84.02;95121.63;5136034;27;20207;-78
2022/09/24 08:37:53;;;;;;;18.93;12.37;;;;;;;10.70;84.48;95124.69;5130696;27;20203;-79
2022/09/24 08:40:23;;;;;;;18.60;11.57;;;;;;;11.11;84.78;95127.66;5138043;27;20214;-79
2022/09/24 08:43:00;;;;;;;25.53;12.40;;;;;;;11.50;82.05;95124.00;5134641;27;20207;-79
2022/09/24 08:48:15;;;;;;;18.30;11.63;;;;;;;12.23;78.69;95119.78;5132144;27;20231;-77
2022/09/24 08:50:51;;;;;;;17.40;12.17;;;;;;;12.50;76.57;95117.69;5134950;27;20202;-78
2022/09/24 08:53:25;;;;;;;19.07;11.20;;;;;;;12.75;76.33;95113.19;5134589;27;20230;-79
2022/09/24 08:55:55;;;;;;;16.47;11.87;;;;;;;12.75;76.68;95107.16;5137088;27;20587;-82
2022/09/24 08:58:35;;;;;;;15.30;11.10;;;;;;;12.68;76.32;95101.22;5135626;27;20202;-81
2022/09/24 09:01:10;;;;;;;17.60;11.27;;;;;;;13.00;76.59;95107.84;5133983;27;20195;-82
2022/09/24 09:03:46;;;;;;;19.10;11.63;;;;;;;13.46;74.89;95109.81;5137524;27;20211;-79
2022/09/24 09:06:37;;;;;;;16.70;10.57;;;;;;;14.01;71.54;95099.88;5133590;27;20190;-83
2022/09/24 09:09:11;;;;;;;17.20;10.80;;;;;;;14.44;69.01;95110.78;5130454;27;20203;-81
2022/09/24 09:11:45;;;;;;;17.93;10.37;;;;;;;14.87;68.27;95099.06;5132329;27;20187;-82
2022/09/24 09:14:18;;;;;;;16.73;9.93;;;;;;;15.19;66.93;95095.75;5135800;27;20904;-77
2022/09/24 09:16:52;;;;;;;14.23;9.80;;;;;;;15.62;64.82;95097.00;5130834;27;20704;-78
2022/09/24 09:19:23;;;;;;;14.73;10.20;;;;;;;16.08;63.66;95103.75;5131021;27;20201;-79
2022/09/24 09:21:56;;;;;;;12.37;8.70;;;;;;;15.58;64.37;95094.09;5135381;27;20199;-79
2022/09/24 09:24:33;;;;;;;12.83;8.53;;;;;;;15.17;66.37;95100.44;5130224;27;20268;-80
2022/09/24 09:27:01;;;;;;;15.37;8.83;;;;;;;15.22;65.76;95097.09;5133991;27;20200;-81
2022/09/24 09:29:29;;;;;;;16.57;8.50;;;;;;;15.77;64.15;95089.38;5133038;27;20187;-80
2022/09/24 09:32:08;;;;;;;16.40;8.30;;;;;;;16.44;63.79;95093.50;5131814;27;20203;-80
2022/09/24 09:34:51;;;;;;;9.90;7.00;;;;;;;17.18;64.89;95082.53;5127898;27;20803;-80
2022/09/24 09:37:26;;;;;;;12.30;7.73;;;;;;;17.81;59.26;95093.13;5129597;27;20577;-79
2022/09/24 09:40:03;;;;;;;14.30;6.90;;;;;;;18.21;55.65;95086.56;5131056;27;20195;-78
2022/09/24 09:42:34;;;;;;;10.03;6.60;;;;;;;18.49;53.53;95078.31;5131687;27;20241;-78
2022/09/24 09:45:15;;;;;;;11.80;6.70;;;;;;;18.74;53.37;95075.78;5135618;27;20681;-78
2022/09/24 09:47:47;;;;;;;9.87;6.67;;;;;;;18.76;52.77;95065.75;5133521;27;20195;-79
2022/09/24 09:50:28;;;;;;;9.33;6.40;;;;;;;19.22;51.01;95067.47;5135189;27;20657;-78
2022/09/24 09:52:55;;;;;;;7.50;5.93;;;;;;;19.44;49.84;95058.56;5134450;27;20231;-78
2022/09/24 09:55:25;;;;;;;8.98;5.95;;;;;;;19.78;49.03;95057.78;5134623;27;20244;-79
2022/09/24 09:57:52;;;;;;;8.05;6.13;;;;;;;18.98;50.44;95053.22;5135766;27;20206;-79
2022/09/24 10:00:33;;;;;;;18.65;6.07;;;;;;;18.01;53.22;95048.53;5130706;27;20199;-79
2022/09/24 10:03:01;;;;;;;8.63;5.30;;;;;;;18.08;54.04;95043.06;5132965;27;20275;-78
2022/09/24 10:05:28;;;;;;;9.57;5.47;;;;;;;18.70;51.78;95040.47;5130801;27;20585;-80
2022/09/24 10:07:57;;;;;;;10.43;5.40;;;;;;;19.38;50.73;95044.56;5133605;27;20207;-79
2022/09/24 10:10:25;;;;;;;10.70;5.20;;;;;;;20.06;46.87;95045.88;5132798;27;20252;-78
2022/09/24 10:12:54;;;;;;;6.40;5.20;;;;;;;20.56;46.13;95038.91;5134329;27;20644;-78
2022/09/24 10:15:24;;;;;;;8.10;5.40;;;;;;;20.94;45.08;95036.34;5129589;27;20195;-78
2022/09/24 10:17:54;;;;;;;5.90;4.82;;;;;;;21.31;41.52;95030.59;5133215;27;20231;-81
2022/09/24 10:20:26;;;;;;;9.20;3.72;;;;;;;21.70;39.57;95037.72;5132379;27;20207;-84
2022/09/24 10:22:57;;;;;;;4.35;3.33;;;;;;;21.82;36.13;95041.56;5133607;27;20650;-77
2022/09/24 10:25:27;;;;;;;4.75;3.25;;;;;;;21.88;34.11;95042.31;5133231;27;20211;-78
2022/09/24 10:30:32;;;;;;;4.70;3.05;;;;;;;21.65;34.06;95035.09;5133025;27;20199;-77
2022/09/24 10:30:54;;;;;;;7.90;3.00;;;;;;;21.83;34.13;95034.41;5133477;27;20201;-78
2022/09/24 10:33:24;;;;;;;4.38;2.92;;;;;;;22.17;33.69;95044.97;5132453;27;20742;-83
2022/09/24 10:35:51;;;;;;;6.75;3.15;;;;;;;22.10;33.06;95041.88;5134897;27;20207;-80
2022/09/24 10:38:19;;;;;;;6.22;3.65;;;;;;;22.09;33.06;95046.38;5132669;27;20242;-84
2022/09/24 10:40:47;;;;;;;4.82;3.50;;;;;;;22.24;33.46;95046.22;5132033;27;20280;-82
2022/09/24 10:43:19;;;;;;;4.22;2.78;;;;;;;22.59;32.67;95051.13;5133368;27;20860;-73
2022/09/24 10:46:11;;;;;;;3.15;2.60;;;;;;;22.24;31.70;95038.28;5134942;27;20214;-80
2022/09/24 10:48:44;;;;;;;7.13;3.00;;;;;;;22.27;32.28;95034.28;5127517;27;20286;-80
2022/09/24 10:51:26;;;;;;;4.88;2.65;;;;;;;22.08;31.03;95038.72;5133626;27;20669;-79
2022/09/24 10:54:06;;;;;;;3.83;2.75;;;;;;;21.50;32.31;95038.63;5133538;27;20226;-79
2022/09/24 10:56:38;;;;;;;4.20;3.10;;;;;;;21.33;32.88;95038.22;5134649;27;20195;-78
2022/09/24 10:59:26;;;;;;;3.00;2.70;;;;;;;21.78;32.84;95037.91;5133823;27;20222;-80
2022/09/24 11:02:09;;;;;;;3.58;2.88;;;;;;;21.90;31.86;95032.28;5133165;27;20654;-78
2022/09/24 11:04:51;;;;;;;6.35;2.85;;;;;;;22.22;30.97;95051.00;5130274;27;20238;-80
2022/09/24 11:08:02;;;;;;;3.85;3.17;;;;;;;22.25;30.21;95031.13;5134762;27;20259;-79
2022/09/24 11:10:50;;;;;;;8.73;4.07;;;;;;;22.48;30.38;95025.81;5047168;28;20541;-80
2022/09/24 11:13:26;;;;;;;5.28;3.78;;;;;;;22.61;31.28;95030.44;5046307;28;20241;-79
2022/09/24 11:16:15;;;;;;;8.48;4.03;;;;;;;22.56;31.08;95022.56;5106138;27;20203;-79
2022/09/24 11:18:53;;;;;;;5.78;3.20;;;;;;;22.52;30.89;95018.88;5130159;27;20199;-79
2022/09/24 11:21:33;;;;;;;3.47;2.67;;;;;;;23.00;30.77;95016.19;5129520;27;20207;-80
2022/09/24 11:24:13;;;;;;;3.65;2.70;;;;;;;23.13;30.10;95018.13;5128086;27;20219;-80
2022/09/24 11:26:52;;;;;;;3.75;2.72;;;;;;;23.35;30.13;95007.69;5128923;27;20202;-79
2022/09/24 11:29:59;;;;;;;5.80;3.80;;;;;;;23.78;30.48;95004.94;5135671;27;20207;-79
2022/09/24 11:32:33;;;;;;;3.22;2.70;;;;;;;24.21;29.37;95001.00;5133456;27;20206;-80
2022/09/24 11:35:26;;;;;;;4.10;2.72;;;;;;;24.60;27.87;95000.50;5127599;27;20203;-80
2022/09/24 11:38:01;;;;;;;7.03;3.10;;;;;;;24.41;27.88;94997.94;5134199;27;20276;-80
2022/09/24 11:40:41;;;;;;;3.25;2.83;;;;;;;24.32;28.52;94988.28;5130710;27;20190;-79
2022/09/24 11:43:32;;;;;;;4.25;2.85;;;;;;;24.41;28.21;94981.22;5130616;27;20198;-84
2022/09/24 11:46:13;;;;;;;5.82;3.30;;;;;;;24.42;27.74;94994.19;5130193;27;20950;-79